createdAt,value
2019-01-12T00:02:17.230Z,0.50
2019-01-12T00:04:48.475Z,0.50
2019-01-12T00:07:17.894Z,0.50
2019-01-12T00:09:47.811Z,0.60
2019-01-12T00:12:17.081Z,0.60
2019-01-12T00:14:47.219Z,0.70
2019-01-12T00:17:16.779Z,0.60
2019-01-12T00:19:46.320Z,0.70
2019-01-12T00:22:15.737Z,0.70
2019-01-12T00:24:44.894Z,0.70
2019-01-12T00:27:14.380Z,0.80
2019-01-12T00:29:43.839Z,0.80
2019-01-12T00:32:13.331Z,0.80
2019-01-12T00:34:43.696Z,0.80
2019-01-12T00:37:13.258Z,0.90
2019-01-12T00:39:43.509Z,0.80
2019-01-12T00:42:12.710Z,0.90
2019-01-12T00:44:42.102Z,0.90
2019-01-12T00:47:13.270Z,1.00
2019-01-12T00:49:44.441Z,0.90
2019-01-12T00:52:13.963Z,0.80
2019-01-12T00:54:43.400Z,0.90
2019-01-12T00:57:12.602Z,0.90
2019-01-12T00:59:42.003Z,1.00
2019-01-12T01:02:11.258Z,0.90
2019-01-12T01:04:40.622Z,1.00
2019-01-12T01:07:10.111Z,1.00
2019-01-12T01:09:39.289Z,1.00
2019-01-12T01:12:08.832Z,1.00
2019-01-12T01:14:38.270Z,1.00
2019-01-12T01:17:08.663Z,1.10
2019-01-12T01:19:38.171Z,1.10
2019-01-12T01:22:08.863Z,1.10
2019-01-12T01:24:38.292Z,1.10
2019-01-12T01:27:07.835Z,1.10
2019-01-12T01:29:37.285Z,1.10
2019-01-12T01:32:07.695Z,1.20
2019-01-12T01:34:37.237Z,1.10
2019-01-12T01:37:06.643Z,1.10
2019-01-12T01:39:35.808Z,1.00
2019-01-12T01:42:05.412Z,1.00
2019-01-12T01:44:34.737Z,1.00
2019-01-12T01:47:09.159Z,1.00
2019-01-12T01:49:38.690Z,1.10
2019-01-12T01:52:08.241Z,1.10
2019-01-12T01:54:37.683Z,1.10
2019-01-12T01:57:10.097Z,1.10
2019-01-12T01:59:39.564Z,1.10
2019-01-12T02:02:09.871Z,1.10
2019-01-12T02:04:40.248Z,1.00
2019-01-12T02:07:09.739Z,1.10
2019-01-12T02:09:39.222Z,1.20
2019-01-12T02:12:10.381Z,1.20
2019-01-12T02:14:40.055Z,1.30
2019-01-12T02:17:11.433Z,1.30
2019-01-12T02:19:40.961Z,1.30
2019-01-12T02:22:12.170Z,1.20
2019-01-12T02:24:42.411Z,1.20
2019-01-12T02:27:11.935Z,1.20
2019-01-12T02:29:49.607Z,1.10
2019-01-12T02:32:18.804Z,1.10
2019-01-12T02:34:53.103Z,1.20
2019-01-12T02:37:23.463Z,1.20
2019-01-12T02:40:00.712Z,1.30
2019-01-12T02:42:29.910Z,1.30
2019-01-12T02:45:00.144Z,1.30
2019-01-12T02:47:29.678Z,1.30
2019-01-12T02:49:59.204Z,1.30
2019-01-12T02:52:28.663Z,1.30
2019-01-12T02:54:59.028Z,1.30
2019-01-12T02:57:28.556Z,1.30
2019-01-12T02:59:58.006Z,1.30
2019-01-12T03:02:27.573Z,1.30
2019-01-12T03:04:57.035Z,1.30
2019-01-12T03:07:26.524Z,1.20
2019-01-12T03:09:56.026Z,1.20
2019-01-12T03:12:25.571Z,1.20
2019-01-12T03:14:55.074Z,1.20
2019-01-12T03:17:24.596Z,1.10
2019-01-12T03:19:54.165Z,1.20
2019-01-12T03:22:23.538Z,1.20
2019-01-12T03:24:52.904Z,1.00
2019-01-12T03:27:23.432Z,1.00
2019-01-12T03:29:54.991Z,1.00
2019-01-12T03:32:24.447Z,0.90
2019-01-12T03:34:54.794Z,0.90
2019-01-12T03:37:24.259Z,0.80
2019-01-12T03:39:53.634Z,0.70
2019-01-12T03:42:23.597Z,0.70
2019-01-12T03:44:54.020Z,0.70
2019-01-12T03:47:23.173Z,0.70
2019-01-12T03:49:53.521Z,0.60
2019-01-12T03:52:22.928Z,0.60
2019-01-12T03:54:54.078Z,0.50
2019-01-12T03:57:23.633Z,0.40
2019-01-12T03:59:53.185Z,0.30
2019-01-12T04:02:22.605Z,0.30
2019-01-12T04:04:52.146Z,0.20
2019-01-12T04:07:22.498Z,0.10
2019-01-12T04:09:51.917Z,0.00
2019-01-12T04:12:28.019Z,0.00
2019-01-12T04:14:57.571Z,0.00
2019-01-12T04:17:27.009Z,-0.10
2019-01-12T04:19:57.366Z,0.00
2019-01-12T04:22:26.844Z,-0.10
2019-01-12T04:24:56.386Z,-0.10
2019-01-12T04:27:26.723Z,-0.10
2019-01-12T04:29:56.162Z,-0.10
2019-01-12T04:32:25.347Z,-0.10
2019-01-12T04:34:56.866Z,-0.10
2019-01-12T04:37:26.327Z,0.00
2019-01-12T04:39:55.554Z,0.10
2019-01-12T04:42:24.989Z,0.10
2019-01-12T04:44:55.317Z,0.20
2019-01-12T04:47:24.755Z,0.30
2019-01-12T04:49:53.962Z,0.40
2019-01-12T04:52:23.415Z,0.40
2019-01-12T04:54:52.849Z,0.40
2019-01-12T04:57:24.033Z,0.40
2019-01-12T04:59:53.513Z,0.40
2019-01-12T05:02:23.948Z,0.50
2019-01-12T05:04:53.494Z,0.50
2019-01-12T05:07:22.850Z,0.50
2019-01-12T05:09:53.166Z,0.60
2019-01-12T05:12:23.605Z,0.70
2019-01-12T05:14:53.002Z,0.60
2019-01-12T05:17:22.529Z,0.60
2019-01-12T05:19:52.032Z,0.60
2019-01-12T05:22:21.648Z,0.60
2019-01-12T05:24:51.026Z,0.60
2019-01-12T05:27:20.573Z,0.60
2019-01-12T05:29:50.931Z,0.60
2019-01-12T05:32:20.440Z,0.70
2019-01-12T05:34:55.711Z,0.70
2019-01-12T05:37:25.123Z,0.70
2019-01-12T05:40:02.063Z,0.70
2019-01-12T05:42:32.386Z,0.70
2019-01-12T05:45:01.893Z,0.70
2019-01-12T05:47:31.427Z,0.60
2019-01-12T05:50:00.835Z,0.60
2019-01-12T05:52:36.085Z,0.60
2019-01-12T05:55:07.215Z,0.60
2019-01-12T05:57:37.667Z,0.50
2019-01-12T06:00:18.116Z,0.50
2019-01-12T06:02:47.763Z,0.50
2019-01-12T06:05:17.102Z,0.50
2019-01-12T06:07:46.788Z,0.40
2019-01-12T06:10:22.237Z,0.40
2019-01-12T06:12:52.613Z,0.40
2019-01-12T06:15:22.080Z,0.40
2019-01-12T06:17:51.257Z,0.40
2019-01-12T06:20:20.717Z,0.40
2019-01-12T06:22:50.255Z,0.40
2019-01-12T06:25:19.694Z,0.40
2019-01-12T06:27:50.106Z,0.50
2019-01-12T06:30:19.606Z,0.30
2019-01-12T06:32:49.030Z,0.30
2019-01-12T06:35:18.225Z,0.40
2019-01-12T06:37:47.693Z,0.40
2019-01-12T06:40:18.862Z,0.50
2019-01-12T06:42:48.139Z,0.50
2019-01-12T06:45:18.121Z,0.40
2019-01-12T06:47:47.354Z,0.40
2019-01-12T06:50:17.973Z,0.40
2019-01-12T06:52:47.144Z,0.40
2019-01-12T06:55:16.634Z,0.30
2019-01-12T06:57:47.416Z,0.40
2019-01-12T07:00:18.541Z,0.50
2019-01-12T07:02:48.165Z,0.50
2019-01-12T07:05:17.649Z,0.50
2019-01-12T07:07:47.093Z,0.40
2019-01-12T07:10:19.059Z,0.40
2019-01-12T07:12:48.520Z,0.50
2019-01-12T07:15:18.028Z,0.60
2019-01-12T07:17:47.497Z,0.50
2019-01-12T07:20:17.537Z,0.50
2019-01-12T07:22:46.989Z,0.50
2019-01-12T07:25:16.431Z,0.60
2019-01-12T07:27:48.486Z,0.60
2019-01-12T07:30:20.374Z,0.60
2019-01-12T07:32:49.856Z,0.60
2019-01-12T07:35:19.152Z,0.70
2019-01-12T07:37:48.449Z,0.70
2019-01-12T07:40:17.795Z,0.70
2019-01-12T07:42:47.079Z,0.70
2019-01-12T07:45:16.630Z,0.70
2019-01-12T07:47:46.066Z,0.60
2019-01-12T07:50:16.030Z,0.60
2019-01-12T07:52:45.564Z,0.70
2019-01-12T07:55:15.000Z,0.70
2019-01-12T07:57:45.364Z,0.70
2019-01-12T08:00:17.695Z,0.70
2019-01-12T08:02:46.925Z,0.70
2019-01-12T08:05:17.101Z,0.70
2019-01-12T08:07:48.333Z,0.70
2019-01-12T08:10:20.608Z,0.80
2019-01-12T08:12:49.921Z,1.00
2019-01-12T08:15:19.570Z,1.00
2019-01-12T08:17:58.799Z,1.10
2019-01-12T08:20:28.075Z,1.00
2019-01-12T08:22:57.232Z,1.00
2019-01-12T08:25:26.732Z,0.90
2019-01-12T08:27:57.102Z,0.80
2019-01-12T08:30:27.367Z,0.70
2019-01-12T08:33:03.935Z,0.70
2019-01-12T08:35:34.183Z,0.70
2019-01-12T08:38:03.693Z,0.80
2019-01-12T08:40:33.988Z,0.70
2019-01-12T08:43:11.245Z,0.60
2019-01-12T08:45:40.486Z,0.60
2019-01-12T08:48:09.829Z,0.60
2019-01-12T08:50:41.008Z,0.60
2019-01-12T08:53:10.582Z,0.60
2019-01-12T08:55:40.130Z,0.70
2019-01-12T08:58:09.499Z,0.70
2019-01-12T09:00:40.006Z,0.70
2019-01-12T09:03:09.389Z,0.70
2019-01-12T09:05:38.844Z,0.70
2019-01-12T09:08:09.291Z,0.80
2019-01-12T09:10:38.649Z,0.70
2019-01-12T09:13:07.813Z,0.70
2019-01-12T09:15:37.318Z,0.70
2019-01-12T09:18:08.419Z,0.80
2019-01-12T09:20:37.637Z,0.80
2019-01-12T09:23:11.615Z,0.80
2019-01-12T09:25:41.010Z,0.80
2019-01-12T09:28:10.167Z,0.80
2019-01-12T09:30:39.734Z,0.80
2019-01-12T09:33:12.028Z,0.80
2019-01-12T09:35:42.309Z,0.80
2019-01-12T09:38:11.508Z,0.90
2019-01-12T09:40:40.986Z,0.90
2019-01-12T09:43:10.413Z,0.90
2019-01-12T09:45:40.778Z,0.90
2019-01-12T09:48:11.912Z,0.90
2019-01-12T09:50:41.407Z,0.90
2019-01-12T09:53:11.776Z,1.00
2019-01-12T09:55:41.233Z,1.00
2019-01-12T09:58:10.393Z,1.10
2019-01-12T10:00:39.875Z,1.00
2019-01-12T10:03:09.341Z,1.00
2019-01-12T10:05:38.934Z,1.00
2019-01-12T10:08:08.458Z,0.90
2019-01-12T10:10:38.748Z,0.80
2019-01-12T10:13:10.215Z,0.80
2019-01-12T10:15:39.443Z,0.90
2019-01-12T10:18:08.825Z,0.90
2019-01-12T10:20:38.318Z,0.90
2019-01-12T10:23:07.613Z,1.00
2019-01-12T10:25:36.934Z,1.00
2019-01-12T10:28:06.166Z,1.10
2019-01-12T10:30:35.574Z,1.20
2019-01-12T10:33:05.816Z,1.30
2019-01-12T10:35:34.984Z,1.40
2019-01-12T10:38:05.679Z,1.50
2019-01-12T10:40:35.195Z,1.40
2019-01-12T10:43:04.490Z,1.50
2019-01-12T10:45:33.744Z,1.50
2019-01-12T10:48:04.265Z,1.50
2019-01-12T10:50:34.510Z,1.50
2019-01-12T10:53:05.154Z,1.40
2019-01-12T10:55:35.514Z,1.40
2019-01-12T10:58:05.325Z,1.40
2019-01-12T11:00:35.324Z,1.40
2019-01-12T11:03:05.675Z,1.50
2019-01-12T11:05:35.239Z,1.60
2019-01-12T11:08:06.134Z,1.60
2019-01-12T11:10:35.475Z,1.60
2019-01-12T11:13:05.744Z,1.70
2019-01-12T11:15:35.407Z,1.70
2019-01-12T11:18:05.465Z,1.60
2019-01-12T11:20:34.781Z,1.60
2019-01-12T11:23:05.431Z,1.60
2019-01-12T11:25:34.954Z,1.60
2019-01-12T11:28:04.549Z,1.60
2019-01-12T11:30:33.964Z,1.60
2019-01-12T11:33:03.875Z,1.60
2019-01-12T11:35:33.375Z,1.60
2019-01-12T11:38:05.152Z,1.60
2019-01-12T11:40:34.472Z,1.60
2019-01-12T11:43:04.013Z,1.60
2019-01-12T11:45:33.498Z,1.60
2019-01-12T11:48:02.914Z,1.60
2019-01-12T11:50:32.406Z,1.50
2019-01-12T11:53:02.745Z,1.60
2019-01-12T11:55:32.303Z,1.60
2019-01-12T11:58:02.567Z,1.50
2019-01-12T12:00:31.896Z,1.50
2019-01-12T12:03:01.290Z,1.50
2019-01-12T12:05:32.579Z,1.50
2019-01-12T12:08:03.143Z,1.50
2019-01-12T12:10:32.551Z,1.50
2019-01-12T12:13:02.867Z,1.50
2019-01-12T12:15:33.292Z,1.40
2019-01-12T12:18:03.592Z,1.40
2019-01-12T12:20:33.031Z,1.40
2019-01-12T12:23:02.641Z,1.40
2019-01-12T12:25:32.041Z,1.40
2019-01-12T12:28:02.446Z,1.40
2019-01-12T12:30:32.049Z,1.40
2019-01-12T12:33:02.597Z,1.50
2019-01-12T12:35:37.972Z,1.40
2019-01-12T12:38:05.829Z,1.40
2019-01-12T12:40:35.289Z,1.30
2019-01-12T12:43:05.003Z,1.30
2019-01-12T12:45:34.398Z,1.30
2019-01-12T12:48:05.946Z,1.20
2019-01-12T12:50:35.357Z,1.20
2019-01-12T12:53:05.060Z,1.20
2019-01-12T12:55:35.599Z,1.20
2019-01-12T12:58:05.263Z,1.20
2019-01-12T13:00:34.713Z,1.30
2019-01-12T13:03:04.373Z,1.30
2019-01-12T13:05:33.628Z,1.30
2019-01-12T13:08:03.224Z,1.30
2019-01-12T13:10:33.494Z,1.30
2019-01-12T13:13:02.873Z,1.30
2019-01-12T13:15:33.327Z,1.30
2019-01-12T13:18:03.784Z,1.30
2019-01-12T13:20:33.107Z,1.30
2019-01-12T13:23:02.647Z,1.30
2019-01-12T13:25:32.037Z,1.30
2019-01-12T13:28:01.290Z,1.30
2019-01-12T13:30:32.819Z,1.30
2019-01-12T13:33:02.276Z,1.20
2019-01-12T13:35:31.764Z,1.30
2019-01-12T13:38:01.279Z,1.30
2019-01-12T13:40:30.780Z,1.30
2019-01-12T13:43:01.086Z,1.40
2019-01-12T13:45:31.443Z,1.30
2019-01-12T13:48:00.670Z,1.20
2019-01-12T13:50:30.093Z,1.20
2019-01-12T13:53:06.994Z,1.20
2019-01-12T13:55:36.357Z,1.20
2019-01-12T13:58:10.438Z,1.20
2019-01-12T14:00:41.223Z,1.30
2019-01-12T14:03:11.474Z,1.30
2019-01-12T14:05:40.993Z,1.30
2019-01-12T14:08:13.826Z,1.40
2019-01-12T14:10:44.047Z,1.40
2019-01-12T14:13:20.200Z,1.30
2019-01-12T14:16:01.730Z,1.30
2019-01-12T14:18:34.846Z,1.30
2019-01-12T14:21:06.246Z,1.40
2019-01-12T14:23:35.807Z,1.40
2019-01-12T14:26:05.409Z,1.30
2019-01-12T14:28:34.721Z,1.30
2019-01-12T14:31:07.169Z,1.30
2019-01-12T14:33:37.527Z,1.30
2019-01-12T14:36:06.938Z,1.30
2019-01-12T14:38:36.531Z,1.30
2019-01-12T14:41:06.058Z,1.30
2019-01-12T14:43:36.255Z,1.30
2019-01-12T14:46:06.611Z,1.20
2019-01-12T14:48:35.805Z,1.20
2019-01-12T14:51:10.995Z,1.30
2019-01-12T14:53:40.480Z,1.30
2019-01-12T14:56:10.062Z,1.30
2019-01-12T14:58:39.492Z,1.30
2019-01-12T15:01:09.775Z,1.30
2019-01-12T15:03:39.332Z,1.30
2019-01-12T15:06:10.912Z,1.30
2019-01-12T15:08:41.158Z,1.30
2019-01-12T15:11:11.515Z,1.30
2019-01-12T15:13:40.990Z,1.40
2019-01-12T15:16:11.297Z,1.40
2019-01-12T15:18:40.511Z,1.30
2019-01-12T15:21:09.990Z,1.30
2019-01-12T15:23:39.421Z,1.30
2019-01-12T15:26:08.610Z,1.30
2019-01-12T15:28:38.028Z,1.30
2019-01-12T15:31:07.509Z,1.30
2019-01-12T15:33:37.878Z,1.30
2019-01-12T15:36:07.488Z,1.30
2019-01-12T15:38:36.850Z,1.30
2019-01-12T15:41:06.109Z,1.20
2019-01-12T15:43:41.191Z,1.30
2019-01-12T15:46:10.355Z,1.20
2019-01-12T15:48:39.863Z,1.30
2019-01-12T15:51:09.027Z,1.30
2019-01-12T15:53:38.418Z,1.30
2019-01-12T15:56:07.931Z,1.50
2019-01-12T15:58:37.409Z,1.50
2019-01-12T16:01:06.571Z,1.60
2019-01-12T16:03:36.042Z,1.60
2019-01-12T16:06:05.577Z,1.60
2019-01-12T16:08:35.072Z,1.60
2019-01-12T16:11:04.841Z,1.60
2019-01-12T16:13:34.030Z,1.60
2019-01-12T16:16:04.506Z,1.60
2019-01-12T16:18:33.892Z,1.60
2019-01-12T16:21:06.256Z,1.60
2019-01-12T16:23:36.622Z,1.60
2019-01-12T16:26:06.238Z,1.60
2019-01-12T16:28:35.578Z,1.40
2019-01-12T16:31:04.814Z,1.40
2019-01-12T16:33:35.039Z,1.50
2019-01-12T16:36:04.665Z,1.50
2019-01-12T16:38:35.236Z,1.40
2019-01-12T16:41:04.549Z,1.40
2019-01-12T16:43:33.921Z,1.40
2019-01-12T16:46:03.340Z,1.40
2019-01-12T16:48:33.813Z,1.40
2019-01-12T16:51:03.169Z,1.60
2019-01-12T16:53:32.419Z,1.60
2019-01-12T16:56:02.633Z,1.70
2019-01-12T16:58:32.094Z,1.70
2019-01-12T17:01:01.355Z,1.70
2019-01-12T17:03:30.833Z,1.70
2019-01-12T17:06:00.221Z,1.70
2019-01-12T17:08:29.701Z,1.70
2019-01-12T17:10:58.914Z,1.70
2019-01-12T17:13:28.298Z,1.70
2019-01-12T17:15:58.661Z,1.70
2019-01-12T17:18:28.173Z,1.80
2019-01-12T17:20:57.639Z,1.80
2019-01-12T17:23:28.055Z,1.80
2019-01-12T17:25:57.583Z,1.80
2019-01-12T17:28:26.969Z,1.80
2019-01-12T17:30:58.197Z,1.80
2019-01-12T17:33:27.802Z,1.80
2019-01-12T17:35:57.041Z,1.80
2019-01-12T17:38:26.289Z,1.80
2019-01-12T17:40:56.611Z,1.80
2019-01-12T17:43:26.054Z,1.90
2019-01-12T17:45:55.494Z,1.80
2019-01-12T17:48:32.983Z,1.90
2019-01-12T17:51:02.358Z,1.80
2019-01-12T17:53:33.571Z,1.80
2019-01-12T17:56:03.159Z,1.90
2019-01-12T17:58:34.564Z,1.90
2019-01-12T18:01:05.015Z,1.90
2019-01-12T18:03:34.419Z,1.80
2019-01-12T18:06:04.331Z,1.90
2019-01-12T18:08:35.459Z,1.90
2019-01-12T18:11:05.054Z,1.80
2019-01-12T18:13:34.458Z,1.90
2019-01-12T18:16:03.691Z,1.90
2019-01-12T18:18:33.103Z,1.90
2019-01-12T18:21:02.575Z,1.80
2019-01-12T18:23:33.386Z,1.80
2019-01-12T18:26:05.057Z,1.80
2019-01-12T18:28:34.356Z,1.80
2019-01-12T18:31:04.742Z,1.80
2019-01-12T18:33:34.212Z,1.80
2019-01-12T18:36:03.769Z,1.80
2019-01-12T18:38:34.099Z,1.70
2019-01-12T18:41:04.376Z,1.80
2019-01-12T18:43:33.963Z,1.80
2019-01-12T18:46:03.371Z,1.80
2019-01-12T18:48:32.961Z,1.90
2019-01-12T18:51:02.446Z,1.90
2019-01-12T18:53:31.681Z,2.00
2019-01-12T18:56:01.101Z,2.00
2019-01-12T18:58:30.492Z,2.00
2019-01-12T19:01:01.714Z,2.00
2019-01-12T19:03:31.306Z,2.00
2019-01-12T19:06:00.706Z,2.00
2019-01-12T19:08:30.155Z,2.00
2019-01-12T19:10:59.752Z,2.00
2019-01-12T19:13:29.190Z,2.00
2019-01-12T19:15:58.675Z,1.90
2019-01-12T19:18:28.247Z,2.00
2019-01-12T19:20:58.514Z,2.00
2019-01-12T19:23:28.004Z,2.00
2019-01-12T19:25:57.536Z,1.90
2019-01-12T19:28:26.989Z,1.90
2019-01-12T19:30:56.153Z,2.00
2019-01-12T19:33:25.662Z,1.90
2019-01-12T19:35:55.124Z,1.90
2019-01-12T19:38:24.605Z,1.90
2019-01-12T19:40:53.822Z,1.90
2019-01-12T19:43:27.341Z,1.80
2019-01-12T19:46:05.569Z,1.80
2019-01-12T19:48:35.745Z,1.80
2019-01-12T19:51:05.286Z,1.80
2019-01-12T19:53:34.804Z,1.80
2019-01-12T19:56:04.324Z,1.70
2019-01-12T19:58:40.427Z,1.70
2019-01-12T20:01:09.974Z,1.70
2019-01-12T20:03:40.146Z,1.60
2019-01-12T20:06:16.894Z,1.60
2019-01-12T20:08:40.796Z,1.60
2019-01-12T20:11:10.047Z,1.60
2019-01-12T20:13:41.460Z,1.60
2019-01-12T20:16:11.773Z,1.50
2019-01-12T20:18:40.933Z,1.50
2019-01-12T20:21:10.395Z,1.40
2019-01-12T20:23:39.857Z,1.40
2019-01-12T20:26:09.085Z,1.40
2019-01-12T20:28:38.503Z,1.40
2019-01-12T20:31:44.023Z,1.40
2019-01-12T20:34:19.496Z,1.40
2019-01-12T20:37:03.398Z,1.40
2019-01-12T20:39:35.720Z,1.40
2019-01-12T20:42:28.975Z,1.40
2019-01-12T20:45:19.578Z,1.40
2019-01-12T20:48:08.749Z,1.40
2019-01-12T20:50:50.398Z,1.50
2019-01-12T20:53:25.625Z,1.50
2019-01-12T20:56:19.240Z,1.50
2019-01-12T20:59:09.520Z,1.60
2019-01-12T21:01:54.263Z,1.60
2019-01-12T21:04:44.896Z,1.60
2019-01-12T21:07:20.339Z,1.60
2019-01-12T21:10:08.564Z,1.60
2019-01-12T21:13:04.242Z,1.60
2019-01-12T21:15:37.812Z,1.50
2019-01-12T21:18:07.368Z,1.60
2019-01-12T21:20:36.810Z,1.60
2019-01-12T21:23:06.428Z,1.60
2019-01-12T21:25:35.804Z,1.70
2019-01-12T21:28:06.983Z,1.70
2019-01-12T21:30:36.455Z,1.70
2019-01-12T21:33:05.616Z,1.70
2019-01-12T21:35:35.089Z,1.70
2019-01-12T21:38:04.686Z,1.70
2019-01-12T21:40:34.082Z,1.80
2019-01-12T21:43:05.309Z,1.80
2019-01-12T21:45:35.530Z,1.80
2019-01-12T21:48:05.161Z,1.70
2019-01-12T21:50:34.632Z,1.80
2019-01-12T21:53:04.108Z,1.90
2019-01-12T21:55:33.350Z,1.80
2019-01-12T21:58:02.764Z,1.80
2019-01-12T22:00:32.162Z,1.80
2019-01-12T22:03:01.392Z,1.80
2019-01-12T22:05:30.827Z,1.80
2019-01-12T22:08:00.341Z,1.90
2019-01-12T22:10:29.799Z,1.90
2019-01-12T22:12:59.501Z,1.90
2019-01-12T22:15:28.787Z,1.90
2019-01-12T22:17:58.434Z,1.90
2019-01-12T22:20:27.883Z,1.90
2019-01-12T22:22:57.373Z,1.90
2019-01-12T22:25:26.806Z,1.90
2019-01-12T22:27:57.993Z,1.90
2019-01-12T22:30:28.276Z,1.90
2019-01-12T22:33:00.326Z,2.00
2019-01-12T22:35:29.843Z,1.90
2019-01-12T22:37:59.285Z,2.00
2019-01-12T22:40:29.553Z,1.90
2019-01-12T22:43:02.372Z,1.90
2019-01-12T22:45:32.676Z,1.90
2019-01-12T22:48:04.095Z,1.90
2019-01-12T22:50:33.428Z,1.90
2019-01-12T22:53:02.896Z,2.00
2019-01-12T22:55:33.217Z,2.00
2019-01-12T22:58:02.732Z,2.00
2019-01-12T23:00:39.417Z,2.00
2019-01-12T23:03:08.743Z,2.00
2019-01-12T23:05:38.126Z,1.90
2019-01-12T23:08:07.297Z,2.00
2019-01-12T23:10:36.785Z,2.00
2019-01-12T23:13:06.315Z,2.00
2019-01-12T23:15:43.647Z,2.10
2019-01-12T23:18:13.910Z,2.00
2019-01-12T23:20:43.362Z,2.10
2019-01-12T23:23:12.954Z,2.10
2019-01-12T23:25:42.367Z,2.20
2019-01-12T23:28:11.620Z,2.20
2019-01-12T23:30:40.989Z,2.20
2019-01-12T23:33:10.605Z,2.20
2019-01-12T23:35:40.049Z,2.30
2019-01-12T23:38:09.787Z,2.30
2019-01-12T23:40:39.061Z,2.40
2019-01-12T23:43:08.662Z,2.40
2019-01-12T23:45:38.047Z,2.50
2019-01-12T23:48:07.498Z,2.50
2019-01-12T23:50:37.847Z,2.50
2019-01-12T23:53:07.431Z,2.40
2019-01-12T23:55:36.887Z,2.40
2019-01-12T23:58:06.360Z,2.30
